createdAt,value
2017-05-03T00:01:36.798Z,9.30
2017-05-03T00:04:04.548Z,9.30
2017-05-03T00:06:31.607Z,9.30
2017-05-03T00:08:59.785Z,9.20
2017-05-03T00:11:26.773Z,9.30
2017-05-03T00:13:53.792Z,9.30
2017-05-03T00:16:21.936Z,9.20
2017-05-03T00:18:48.937Z,9.40
2017-05-03T00:21:15.960Z,9.30
2017-05-03T00:23:43.990Z,9.30
2017-05-03T00:26:11.016Z,9.40
2017-05-03T00:28:38.012Z,9.40
2017-05-03T00:31:05.472Z,9.30
2017-05-03T00:33:32.453Z,9.30
2017-05-03T00:35:59.459Z,9.30
2017-05-03T00:38:26.920Z,9.30
2017-05-03T00:40:53.949Z,9.30
2017-05-03T00:43:20.984Z,9.20
2017-05-03T00:45:48.348Z,9.20
2017-05-03T00:48:15.366Z,9.20
2017-05-03T00:50:42.349Z,9.20
2017-05-03T00:53:09.693Z,9.20
2017-05-03T00:55:36.697Z,9.30
2017-05-03T00:58:04.484Z,9.30
2017-05-03T01:00:31.783Z,9.40
2017-05-03T01:02:58.794Z,9.30
2017-05-03T01:05:25.810Z,9.30
2017-05-03T01:07:54.449Z,9.20
2017-05-03T01:10:21.443Z,9.30
2017-05-03T01:12:49.174Z,9.20
2017-05-03T01:15:16.541Z,9.40
2017-05-03T01:17:43.523Z,9.40
2017-05-03T01:20:10.532Z,9.30
2017-05-03T01:22:37.982Z,9.30
2017-05-03T01:25:05.746Z,9.20
2017-05-03T01:27:32.809Z,9.30
2017-05-03T01:30:00.129Z,9.30
2017-05-03T01:32:27.161Z,9.50
2017-05-03T01:34:54.144Z,9.40
2017-05-03T01:37:21.421Z,9.50
2017-05-03T01:39:48.428Z,9.40
2017-05-03T01:42:15.425Z,9.40
2017-05-03T01:44:43.544Z,9.20
2017-05-03T01:47:10.528Z,9.30
2017-05-03T01:49:37.544Z,9.40
2017-05-03T01:52:04.891Z,9.50
2017-05-03T01:54:31.958Z,9.50
2017-05-03T01:56:59.108Z,9.50
2017-05-03T01:59:26.559Z,9.50
2017-05-03T02:01:53.565Z,9.40
2017-05-03T02:04:20.606Z,9.50
2017-05-03T02:06:48.539Z,9.50
2017-05-03T02:09:15.524Z,9.50
2017-05-03T02:11:43.278Z,9.40
2017-05-03T02:14:11.393Z,9.40
2017-05-03T02:16:38.400Z,9.50
2017-05-03T02:19:06.128Z,9.30
2017-05-03T02:21:33.560Z,9.40
2017-05-03T02:24:00.556Z,9.40
2017-05-03T02:26:28.357Z,9.50
2017-05-03T02:28:55.745Z,9.60
2017-05-03T02:31:22.724Z,9.60
2017-05-03T02:33:49.708Z,9.50
2017-05-03T02:36:17.207Z,9.60
2017-05-03T02:38:44.210Z,9.70
2017-05-03T02:41:11.189Z,9.60
2017-05-03T02:43:38.704Z,9.60
2017-05-03T02:46:06.435Z,9.50
2017-05-03T02:48:34.192Z,9.60
2017-05-03T02:51:01.640Z,9.70
2017-05-03T02:53:28.656Z,9.60
2017-05-03T02:55:55.691Z,9.70
2017-05-03T02:58:23.124Z,9.70
2017-05-03T03:00:50.132Z,9.60
2017-05-03T03:03:17.164Z,9.60
2017-05-03T03:05:44.448Z,9.70
2017-05-03T03:08:11.442Z,9.80
2017-05-03T03:10:38.440Z,9.80
2017-05-03T03:13:05.880Z,9.60
2017-05-03T03:15:32.864Z,9.60
2017-05-03T03:18:00.632Z,9.50
2017-05-03T03:20:28.753Z,9.70
2017-05-03T03:22:55.786Z,9.80
2017-05-03T03:25:22.762Z,9.80
2017-05-03T03:27:50.333Z,9.80
2017-05-03T03:30:17.347Z,9.80
2017-05-03T03:32:44.332Z,9.80
2017-05-03T03:35:11.661Z,9.70
2017-05-03T03:37:38.676Z,9.80
2017-05-03T03:40:05.672Z,9.70
2017-05-03T03:42:33.026Z,9.70
2017-05-03T03:45:00.021Z,9.70
2017-05-03T03:47:27.097Z,9.70
2017-05-03T03:49:54.464Z,9.80
2017-05-03T03:52:22.352Z,9.80
2017-05-03T03:54:50.138Z,9.80
2017-05-03T03:57:18.164Z,9.80
2017-05-03T03:59:45.149Z,9.80
2017-05-03T04:02:12.180Z,9.90
2017-05-03T04:04:39.546Z,9.80
2017-05-03T04:07:06.540Z,9.90
2017-05-03T04:09:33.559Z,9.90
2017-05-03T04:12:01.001Z,9.90
2017-05-03T04:14:28.022Z,9.80
2017-05-03T04:16:55.070Z,9.80
2017-05-03T04:19:22.535Z,9.80
2017-05-03T04:21:49.579Z,9.80
2017-05-03T04:24:16.600Z,9.70
2017-05-03T04:26:44.000Z,9.70
2017-05-03T04:29:11.140Z,9.80
2017-05-03T04:31:38.320Z,9.80
2017-05-03T04:34:06.709Z,9.80
2017-05-03T04:36:33.842Z,9.70
2017-05-03T04:39:00.940Z,9.60
2017-05-03T04:41:28.442Z,9.60
2017-05-03T04:43:55.620Z,9.60
2017-05-03T04:46:22.753Z,9.80
2017-05-03T04:48:50.171Z,9.70
2017-05-03T04:51:17.275Z,9.80
2017-05-03T04:53:44.389Z,9.90
2017-05-03T04:56:11.764Z,9.70
2017-05-03T04:58:38.861Z,9.60
2017-05-03T05:01:06.752Z,9.70
2017-05-03T05:03:35.031Z,9.60
2017-05-03T05:06:02.163Z,9.70
2017-05-03T05:08:29.308Z,9.70
2017-05-03T05:10:57.515Z,9.60
2017-05-03T05:13:24.712Z,9.50
2017-05-03T05:15:51.779Z,9.50
2017-05-03T05:18:19.172Z,9.50
2017-05-03T05:20:47.034Z,9.50
2017-05-03T05:23:14.801Z,9.50
2017-05-03T05:25:42.267Z,9.70
2017-05-03T05:28:10.033Z,9.70
2017-05-03T05:30:37.835Z,9.70
2017-05-03T05:33:05.205Z,9.90
2017-05-03T05:35:32.246Z,10.00
2017-05-03T05:37:59.330Z,10.00
2017-05-03T05:40:26.692Z,9.90
2017-05-03T05:42:53.748Z,10.00
2017-05-03T05:45:22.109Z,10.00
2017-05-03T05:47:50.240Z,10.10
2017-05-03T05:50:17.269Z,10.10
2017-05-03T05:52:44.314Z,10.20
2017-05-03T05:55:11.846Z,10.10
2017-05-03T05:57:38.927Z,10.10
2017-05-03T06:00:06.051Z,10.30
2017-05-03T06:02:34.191Z,10.10
2017-05-03T06:05:03.597Z,10.10
2017-05-03T06:07:30.929Z,10.20
2017-05-03T06:09:58.445Z,10.20
2017-05-03T06:12:25.595Z,10.20
2017-05-03T06:14:53.916Z,10.30
2017-05-03T06:17:21.464Z,10.30
2017-05-03T06:19:48.523Z,10.40
2017-05-03T06:22:16.292Z,10.40
2017-05-03T06:24:44.479Z,10.40
2017-05-03T06:27:11.523Z,10.50
2017-05-03T06:29:39.280Z,10.40
2017-05-03T06:32:06.656Z,10.50
2017-05-03T06:34:34.411Z,10.50
2017-05-03T06:37:01.450Z,10.50
2017-05-03T06:39:29.627Z,10.40
2017-05-03T06:41:57.373Z,10.60
2017-05-03T06:44:25.329Z,10.50
2017-05-03T06:46:52.843Z,10.80
2017-05-03T06:49:19.911Z,11.00
2017-05-03T06:51:46.940Z,11.10
2017-05-03T06:54:14.529Z,11.10
2017-05-03T06:56:41.552Z,11.10
2017-05-03T06:59:08.556Z,11.10
2017-05-03T07:01:36.709Z,11.30
2017-05-03T07:04:03.794Z,11.40
2017-05-03T07:06:30.813Z,11.50
2017-05-03T07:08:59.157Z,11.60
2017-05-03T07:11:26.958Z,11.60
2017-05-03T07:13:54.708Z,11.60
2017-05-03T07:16:22.149Z,11.80
2017-05-03T07:18:49.966Z,11.70
2017-05-03T07:21:16.976Z,11.80
2017-05-03T07:23:44.499Z,11.90
2017-05-03T07:26:11.533Z,12.00
2017-05-03T07:28:38.575Z,12.00
2017-05-03T07:31:05.964Z,12.00
2017-05-03T07:33:33.012Z,11.90
2017-05-03T07:36:00.079Z,11.90
2017-05-03T07:38:27.605Z,12.00
2017-05-03T07:40:54.632Z,12.10
2017-05-03T07:43:21.694Z,12.20
2017-05-03T07:45:49.621Z,12.40
2017-05-03T07:48:16.645Z,12.40
2017-05-03T07:50:43.720Z,12.70
2017-05-03T07:53:11.152Z,12.70
2017-05-03T07:55:38.208Z,13.00
2017-05-03T07:58:05.261Z,13.00
2017-05-03T08:00:32.620Z,13.00
2017-05-03T08:02:59.657Z,13.10
2017-05-03T08:05:26.728Z,13.20
2017-05-03T08:07:54.185Z,13.10
2017-05-03T08:10:21.207Z,13.20
2017-05-03T08:12:48.250Z,13.10
2017-05-03T08:15:15.590Z,12.90
2017-05-03T08:17:42.606Z,13.00
2017-05-03T08:20:09.622Z,12.90
2017-05-03T08:22:37.780Z,13.00
2017-05-03T08:25:04.815Z,13.20
2017-05-03T08:27:31.876Z,13.20
2017-05-03T08:29:59.338Z,13.30
2017-05-03T08:32:27.121Z,13.40
2017-05-03T08:34:54.856Z,13.40
2017-05-03T08:37:22.305Z,13.50
2017-05-03T08:39:50.111Z,13.50
2017-05-03T08:42:17.899Z,13.60
2017-05-03T08:44:45.337Z,13.80
2017-05-03T08:47:12.396Z,13.70
2017-05-03T08:49:39.477Z,13.80
2017-05-03T08:52:06.851Z,13.70
2017-05-03T08:54:33.899Z,14.00
2017-05-03T08:57:00.954Z,13.90
2017-05-03T08:59:28.497Z,13.80
2017-05-03T09:01:55.566Z,13.70
2017-05-03T09:04:22.606Z,13.70
2017-05-03T09:06:50.276Z,13.80
2017-05-03T09:09:17.319Z,14.00
2017-05-03T09:11:44.364Z,14.10
2017-05-03T09:14:11.797Z,14.30
2017-05-03T09:16:38.808Z,14.30
2017-05-03T09:19:05.814Z,14.30
2017-05-03T09:21:33.348Z,14.40
2017-05-03T09:24:00.416Z,14.30
2017-05-03T09:26:27.473Z,14.20
2017-05-03T09:28:54.864Z,14.20
2017-05-03T09:31:21.955Z,14.40
2017-05-03T09:33:48.989Z,14.50
2017-05-03T09:36:17.139Z,14.70
2017-05-03T09:38:44.166Z,14.80
2017-05-03T09:41:11.216Z,14.90
2017-05-03T09:43:38.586Z,15.00
2017-05-03T09:46:05.604Z,15.20
2017-05-03T09:48:32.649Z,15.30
2017-05-03T09:51:00.022Z,15.10
2017-05-03T09:53:27.818Z,15.00
2017-05-03T09:55:54.864Z,15.00
2017-05-03T09:58:22.282Z,14.90
2017-05-03T10:00:50.101Z,14.70
2017-05-03T10:03:17.135Z,14.90
2017-05-03T10:05:44.559Z,14.90
2017-05-03T10:08:12.344Z,14.90
2017-05-03T10:10:39.370Z,15.20
2017-05-03T10:13:07.497Z,15.20
2017-05-03T10:15:34.535Z,15.40
2017-05-03T10:18:01.546Z,15.30
2017-05-03T10:20:28.999Z,15.20
2017-05-03T10:22:56.060Z,15.20
2017-05-03T10:25:23.111Z,15.20
2017-05-03T10:27:50.527Z,15.30
2017-05-03T10:30:17.530Z,15.20
2017-05-03T10:32:44.560Z,15.40
2017-05-03T10:35:11.936Z,15.20
2017-05-03T10:37:38.997Z,15.00
2017-05-03T10:40:06.792Z,15.00
2017-05-03T10:42:34.196Z,15.30
2017-05-03T10:45:01.224Z,15.40
2017-05-03T10:47:28.240Z,15.50
2017-05-03T10:49:56.360Z,15.70
2017-05-03T10:52:23.411Z,15.80
2017-05-03T10:54:50.396Z,15.80
2017-05-03T10:57:17.841Z,15.60
2017-05-03T10:59:51.852Z,15.70
2017-05-03T11:02:19.219Z,15.70
2017-05-03T11:04:46.267Z,15.70
2017-05-03T11:07:13.303Z,15.50
2017-05-03T11:09:40.769Z,15.50
2017-05-03T11:12:07.823Z,15.50
2017-05-03T11:14:34.871Z,15.60
2017-05-03T11:17:02.282Z,16.00
2017-05-03T11:19:29.344Z,16.40
2017-05-03T11:21:56.367Z,16.50
2017-05-03T11:24:23.915Z,16.40
2017-05-03T11:26:51.148Z,16.80
2017-05-03T11:29:18.205Z,16.90
2017-05-03T11:31:45.565Z,16.90
2017-05-03T11:34:12.562Z,17.30
2017-05-03T11:36:39.591Z,17.30
2017-05-03T11:39:06.958Z,17.30
2017-05-03T11:41:33.996Z,17.60
2017-05-03T11:44:01.021Z,17.70
2017-05-03T11:46:29.169Z,18.00
2017-05-03T11:48:56.175Z,17.70
2017-05-03T11:51:23.200Z,17.30
2017-05-03T11:53:50.567Z,17.10
2017-05-03T11:56:17.596Z,16.90
2017-05-03T11:58:44.695Z,16.90
2017-05-03T12:01:12.035Z,16.90
2017-05-03T12:03:39.880Z,17.20
2017-05-03T12:06:06.911Z,17.30
2017-05-03T12:08:34.301Z,17.20
2017-05-03T12:11:01.336Z,17.20
2017-05-03T12:13:28.352Z,17.40
2017-05-03T12:15:55.752Z,17.20
2017-05-03T12:18:22.798Z,17.20
2017-05-03T12:20:50.609Z,17.20
2017-05-03T12:23:17.949Z,17.40
2017-05-03T12:25:44.981Z,17.50
2017-05-03T12:28:12.742Z,17.50
2017-05-03T12:30:40.946Z,17.30
2017-05-03T12:33:07.947Z,17.20
2017-05-03T12:35:34.971Z,17.00
2017-05-03T12:38:02.263Z,17.00
2017-05-03T12:40:29.273Z,16.80
2017-05-03T12:42:56.333Z,16.80
2017-05-03T12:45:23.692Z,16.70
2017-05-03T12:47:50.698Z,16.80
2017-05-03T12:50:17.706Z,16.70
2017-05-03T12:52:45.108Z,16.90
2017-05-03T12:55:12.149Z,16.80
2017-05-03T12:57:39.160Z,16.80
2017-05-03T13:00:06.667Z,17.00
2017-05-03T13:02:33.684Z,16.80
2017-05-03T13:05:00.753Z,16.70
2017-05-03T13:07:28.110Z,16.70
2017-05-03T13:09:55.116Z,16.80
2017-05-03T13:12:22.136Z,16.80
2017-05-03T13:14:49.532Z,16.70
2017-05-03T13:17:16.561Z,16.70
2017-05-03T13:19:43.589Z,17.00
2017-05-03T13:22:10.980Z,17.20
2017-05-03T13:24:37.976Z,17.40
2017-05-03T13:27:04.977Z,17.60
2017-05-03T13:29:33.169Z,17.80
2017-05-03T13:32:00.195Z,18.10
2017-05-03T13:34:27.222Z,18.20
2017-05-03T13:36:54.674Z,18.10
2017-05-03T13:39:21.717Z,18.00
2017-05-03T13:41:48.781Z,18.10
2017-05-03T13:44:16.543Z,18.30
2017-05-03T13:46:43.580Z,18.50
2017-05-03T13:49:10.569Z,19.00
2017-05-03T13:51:37.978Z,19.20
2017-05-03T13:54:04.996Z,19.10
2017-05-03T13:56:32.039Z,18.90
2017-05-03T13:58:59.432Z,19.20
2017-05-03T14:01:27.237Z,18.70
2017-05-03T14:03:54.263Z,17.90
2017-05-03T14:06:22.408Z,17.30
2017-05-03T14:08:49.469Z,16.90
2017-05-03T14:11:16.546Z,16.80
2017-05-03T14:13:43.967Z,16.90
2017-05-03T14:16:10.980Z,17.40
2017-05-03T14:18:38.022Z,17.60
2017-05-03T14:21:05.393Z,17.90
2017-05-03T14:23:33.161Z,18.40
2017-05-03T14:26:00.210Z,18.70
2017-05-03T14:28:28.468Z,18.50
2017-05-03T14:30:55.519Z,18.10
2017-05-03T14:33:22.562Z,18.00
2017-05-03T14:35:49.904Z,17.60
2017-05-03T14:38:16.938Z,17.40
2017-05-03T14:40:44.012Z,17.30
2017-05-03T14:43:11.368Z,17.30
2017-05-03T14:45:38.394Z,17.00
2017-05-03T14:48:05.405Z,17.00
2017-05-03T14:50:32.915Z,16.80
2017-05-03T14:52:59.917Z,16.60
2017-05-03T14:55:26.965Z,16.70
2017-05-03T14:57:54.337Z,17.50
2017-05-03T15:00:21.380Z,17.40
2017-05-03T15:02:48.416Z,16.90
2017-05-03T15:05:15.788Z,16.60
2017-05-03T15:07:42.770Z,16.60
2017-05-03T15:10:09.826Z,16.40
2017-05-03T15:12:37.256Z,16.70
2017-05-03T15:15:05.012Z,17.00
2017-05-03T15:17:32.764Z,17.00
2017-05-03T15:20:00.929Z,17.00
2017-05-03T15:22:27.915Z,18.80
2017-05-03T15:24:54.921Z,21.20
2017-05-03T15:27:22.261Z,23.10
2017-05-03T15:29:49.270Z,24.70
2017-05-03T15:32:16.310Z,24.40
2017-05-03T15:34:43.620Z,23.90
2017-05-03T15:37:10.680Z,21.80
2017-05-03T15:39:38.466Z,20.20
2017-05-03T15:42:06.061Z,19.90
2017-05-03T15:44:33.151Z,19.10
2017-05-03T15:47:00.204Z,18.40
2017-05-03T15:49:27.756Z,17.70
2017-05-03T15:51:54.829Z,17.60
2017-05-03T15:54:21.857Z,17.90
2017-05-03T15:56:49.277Z,17.90
2017-05-03T15:59:16.278Z,17.90
2017-05-03T16:01:43.309Z,17.30
2017-05-03T16:04:10.871Z,16.70
2017-05-03T16:06:37.887Z,16.40
2017-05-03T16:09:04.940Z,16.20
2017-05-03T16:11:32.468Z,15.80
2017-05-03T16:13:59.480Z,15.60
2017-05-03T16:16:26.601Z,15.20
2017-05-03T16:18:54.034Z,15.10
2017-05-03T16:21:21.771Z,15.00
2017-05-03T16:23:48.879Z,15.10
2017-05-03T16:26:16.279Z,15.10
2017-05-03T16:28:44.144Z,15.10
2017-05-03T16:31:11.917Z,15.20
2017-05-03T16:33:40.083Z,16.10
2017-05-03T16:36:07.882Z,16.20
2017-05-03T16:38:34.907Z,16.80
2017-05-03T16:41:02.353Z,16.80
2017-05-03T16:43:30.104Z,16.40
2017-05-03T16:45:57.131Z,15.80
2017-05-03T16:48:24.483Z,15.60
2017-05-03T16:50:52.166Z,15.20
2017-05-03T16:53:19.149Z,15.00
2017-05-03T16:55:46.661Z,15.00
2017-05-03T16:58:14.475Z,15.00
2017-05-03T17:00:41.474Z,14.90
2017-05-03T17:03:09.628Z,14.60
2017-05-03T17:05:36.664Z,14.40
2017-05-03T17:08:03.673Z,14.40
2017-05-03T17:10:31.069Z,14.20
2017-05-03T17:12:58.075Z,14.00
2017-05-03T17:15:25.111Z,13.80
2017-05-03T17:17:52.671Z,13.90
2017-05-03T17:20:19.977Z,13.90
2017-05-03T17:22:47.803Z,13.80
2017-05-03T17:25:15.166Z,13.50
2017-05-03T17:27:42.237Z,13.40
2017-05-03T17:30:16.602Z,13.40
2017-05-03T17:32:43.703Z,13.40
2017-05-03T17:35:11.564Z,13.50
2017-05-03T17:37:39.669Z,13.40
2017-05-03T17:40:06.717Z,13.40
2017-05-03T17:42:33.809Z,13.40
2017-05-03T17:45:01.951Z,13.10
2017-05-03T17:47:28.999Z,13.20
2017-05-03T17:49:56.086Z,13.40
2017-05-03T17:52:24.186Z,13.10
2017-05-03T17:54:51.264Z,13.00
2017-05-03T17:57:18.342Z,12.90
2017-05-03T17:59:49.833Z,12.90
2017-05-03T18:02:18.331Z,12.80
2017-05-03T18:04:45.405Z,12.70
2017-05-03T18:07:12.910Z,12.50
2017-05-03T18:09:39.995Z,12.50
2017-05-03T18:12:07.076Z,12.50
2017-05-03T18:14:35.954Z,12.30
2017-05-03T18:17:03.029Z,12.10
2017-05-03T18:19:30.054Z,12.00
2017-05-03T18:21:58.145Z,12.00
2017-05-03T18:24:25.192Z,12.00
2017-05-03T18:26:52.604Z,11.90
2017-05-03T18:29:20.779Z,11.80
2017-05-03T18:31:48.567Z,11.80
2017-05-03T18:34:15.625Z,11.80
2017-05-03T18:36:42.998Z,11.90
2017-05-03T18:39:10.073Z,11.70
2017-05-03T18:41:37.238Z,11.50
2017-05-03T18:44:04.705Z,11.40
2017-05-03T18:46:32.521Z,11.50
2017-05-03T18:48:59.569Z,11.60
2017-05-03T18:51:26.966Z,11.70
2017-05-03T18:53:54.765Z,11.60
2017-05-03T18:56:29.260Z,11.60
2017-05-03T18:58:57.063Z,11.60
2017-05-03T19:01:24.136Z,11.70
2017-05-03T19:03:52.329Z,11.50
2017-05-03T19:06:20.182Z,11.50
2017-05-03T19:08:47.953Z,11.50
2017-05-03T19:11:15.430Z,11.50
2017-05-03T19:13:42.450Z,11.30
2017-05-03T19:16:10.264Z,11.20
2017-05-03T19:18:37.672Z,11.20
2017-05-03T19:21:04.722Z,11.10
2017-05-03T19:23:32.476Z,11.10
2017-05-03T19:25:59.815Z,11.20
2017-05-03T19:28:26.869Z,11.00
2017-05-03T19:30:54.678Z,10.80
2017-05-03T19:33:22.084Z,10.90
2017-05-03T19:35:49.096Z,10.90
2017-05-03T19:38:16.128Z,10.80
2017-05-03T19:40:43.527Z,10.80
2017-05-03T19:43:10.500Z,10.50
2017-05-03T19:45:38.293Z,10.40
2017-05-03T19:48:05.776Z,10.40
2017-05-03T19:50:32.776Z,10.50
2017-05-03T19:52:59.813Z,10.50
2017-05-03T19:55:27.156Z,10.50
2017-05-03T19:57:54.201Z,10.50
2017-05-03T20:00:21.253Z,10.60
2017-05-03T20:02:48.578Z,10.50
2017-05-03T20:05:15.696Z,10.50
2017-05-03T20:07:42.731Z,10.40
2017-05-03T20:10:11.796Z,10.50
2017-05-03T20:12:38.852Z,10.50
2017-05-03T20:15:05.928Z,10.40
2017-05-03T20:17:34.095Z,10.20
2017-05-03T20:20:01.265Z,10.10
2017-05-03T20:22:28.449Z,10.20
2017-05-03T20:24:55.953Z,10.20
2017-05-03T20:27:23.082Z,10.20
2017-05-03T20:29:50.176Z,10.10
2017-05-03T20:32:17.791Z,9.80
2017-05-03T20:34:44.822Z,9.90
2017-05-03T20:37:11.861Z,10.10
2017-05-03T20:39:39.235Z,10.00
2017-05-03T20:42:07.024Z,9.90
2017-05-03T20:44:34.037Z,10.10
2017-05-03T20:47:01.406Z,10.10
2017-05-03T20:49:28.521Z,10.20
2017-05-03T20:51:55.527Z,10.20
2017-05-03T20:54:22.955Z,10.20
2017-05-03T20:56:50.055Z,10.30
2017-05-03T20:59:17.149Z,10.30
2017-05-03T21:01:44.459Z,10.30
2017-05-03T21:04:11.481Z,10.20
2017-05-03T21:06:38.514Z,10.00
2017-05-03T21:09:05.843Z,10.00
2017-05-03T21:11:32.851Z,10.00
2017-05-03T21:13:59.864Z,10.00
2017-05-03T21:16:27.900Z,9.90
2017-05-03T21:18:54.925Z,9.90
2017-05-03T21:21:21.931Z,9.90
2017-05-03T21:23:50.070Z,9.90
2017-05-03T21:26:17.095Z,9.90
2017-05-03T21:28:44.102Z,9.80
2017-05-03T21:31:12.241Z,9.70
2017-05-03T21:33:39.668Z,9.70
2017-05-03T21:36:06.664Z,9.80
2017-05-03T21:38:34.894Z,9.80
2017-05-03T21:41:01.924Z,9.80
2017-05-03T21:43:28.993Z,9.90
2017-05-03T21:45:56.333Z,9.90
2017-05-03T21:48:23.329Z,9.90
2017-05-03T21:50:50.364Z,9.90
2017-05-03T21:53:17.747Z,9.70
2017-05-03T21:55:44.766Z,9.80
2017-05-03T21:58:11.768Z,9.90
2017-05-03T22:00:39.069Z,10.00
2017-05-03T22:03:06.081Z,9.80
2017-05-03T22:05:33.066Z,9.80
2017-05-03T22:08:00.356Z,9.80
2017-05-03T22:10:28.125Z,9.70
2017-05-03T22:12:55.112Z,9.80
2017-05-03T22:15:22.503Z,9.70
2017-05-03T22:17:49.551Z,9.70
2017-05-03T22:20:16.599Z,9.70
2017-05-03T22:22:43.948Z,9.50
2017-05-03T22:25:10.944Z,9.50
2017-05-03T22:27:38.443Z,9.50
2017-05-03T22:30:05.800Z,9.40
2017-05-03T22:32:32.829Z,9.40
2017-05-03T22:34:59.854Z,9.50
2017-05-03T22:37:27.252Z,9.70
2017-05-03T22:39:54.221Z,9.70
2017-05-03T22:42:21.238Z,9.50
2017-05-03T22:44:48.624Z,9.60
2017-05-03T22:47:15.606Z,9.80
2017-05-03T22:49:42.629Z,9.90
2017-05-03T22:52:09.939Z,9.80
2017-05-03T22:54:36.941Z,9.80
2017-05-03T22:57:03.958Z,9.70
2017-05-03T22:59:31.413Z,9.60
2017-05-03T23:01:58.432Z,9.60
2017-05-03T23:04:25.428Z,9.40
2017-05-03T23:06:52.742Z,9.30
2017-05-03T23:09:19.746Z,9.40
2017-05-03T23:11:46.745Z,9.50
2017-05-03T23:14:14.109Z,9.60
2017-05-03T23:16:41.192Z,9.60
2017-05-03T23:19:08.932Z,9.60
2017-05-03T23:21:36.261Z,9.70
2017-05-03T23:24:03.290Z,9.60
2017-05-03T23:26:30.301Z,9.70
2017-05-03T23:28:57.625Z,9.60
2017-05-03T23:31:24.613Z,9.40
2017-05-03T23:33:51.625Z,9.40
2017-05-03T23:36:18.952Z,9.40
2017-05-03T23:38:45.955Z,9.30
2017-05-03T23:41:13.719Z,9.40
2017-05-03T23:43:41.833Z,9.50
2017-05-03T23:46:08.838Z,9.70
2017-05-03T23:48:36.603Z,9.60
2017-05-03T23:51:03.908Z,9.60
2017-05-03T23:53:30.909Z,9.60
2017-05-03T23:55:58.663Z,9.40
2017-05-03T23:58:25.989Z,9.50
